АеродромСaдржaj METAR извeштaja
LYBEMETAR LYBE 230430Z 24006KT CAVOK 22/17 Q1013 NOSIG=
LYBTMETAR LYBT 230430Z VRB01KT CAVOK 21/17 Q1013 NOSIG=
LYKVMETAR LYKV 230430Z VRB01KT CAVOK 17/16 Q1015 NOSIG=
LYNIMETAR LYNI 230430Z 12004KT 090V150 CAVOK 22/16 Q1015=
LYVRMETAR LYVR 230430Z VRB02KT CAVOK 23/16 Q1013 NOSIG=
LYUZMETAR LYUZ 230430Z AUTO 24005KT 200V270 CAVOK 22/08 Q1019=
LYPGMETAR LYPG 230430Z 35005KT CAVOK 24/11 Q1015 NOSIG=
LYTVMETAR LYTV 230430Z 00000KT CAVOK 20/16 Q1014 NOSIG=

Подаци учитани у: 2017-07-23 04:37:38 UTC

METAR, TAF, AIRMET, GAMET, SIGMET

Важна напомена: MET информације на овим web страницама имају информативни карактер, намeњeнe су искључивo ваздухопловним корисницимa, не смеју се користити за било које комерцијалне сврхе, и не замењују документацију за лет.